Time;durP1;ratioP1;P1;durP2;ratioP2;P2;SDS_P1;SDS_P2;PMS_P1;PMS_P2;Temp;Humidity;BMP_temperature;BMP_pressure;BME280_temperature;BME280_humidity;BME280_pressure;Samples;Min_cycle;Max_cycle;Signal;HPM_P1;HPM_P2
2023/06/01 00:01:25;;;;;;;1.20;1.10;;;;;;;19.50;47.38;97135.41;10410928;28;20447;-48
2023/06/01 00:06:44;;;;;;;1.38;1.05;;;;;;;19.50;47.37;97135.41;10394627;28;20042;-49
2023/06/01 00:12:05;;;;;;;2.05;1.35;;;;;;;19.50;47.34;97135.41;10513361;28;20045;-46
2023/06/01 00:17:25;;;;;;;1.20;1.10;;;;;;;19.50;47.25;97134.59;10410438;28;20038;-45
2023/06/01 00:22:44;;;;;;;1.20;1.10;;;;;;;19.49;47.39;97141.91;10414038;28;20045;-46
2023/06/01 00:28:03;;;;;;;1.10;1.00;;;;;;;19.50;47.39;97131.88;10420643;28;20042;-49
2023/06/01 00:33:23;;;;;;;1.20;1.00;;;;;;;19.49;47.50;97133.81;10417231;28;20424;-48
2023/06/01 00:38:42;;;;;;;1.20;1.10;;;;;;;19.49;47.50;97133.81;10420927;28;20048;-46
2023/06/01 00:44:02;;;;;;;2.47;1.00;;;;;;;19.49;47.53;97116.81;10458793;28;20451;-48
2023/06/01 00:49:22;;;;;;;1.33;1.00;;;;;;;19.48;47.57;97126.81;10478108;28;20042;-47
2023/06/01 00:54:41;;;;;;;1.33;1.10;;;;;;;19.49;47.64;97123.00;10393597;28;20053;-47
2023/06/01 01:00:12;;;;;;;3.22;1.27;;;;;;;19.48;47.52;97110.59;10475286;28;20045;-48
2023/06/01 01:05:33;;;;;;;1.77;1.05;;;;;;;19.49;47.65;97114.09;10420071;28;20509;-49
2023/06/01 01:10:56;;;;;;;1.52;0.80;;;;;;;19.49;47.58;97111.41;10397204;28;20076;-46
2023/06/01 01:16:27;;;;;;;1.10;1.00;;;;;;;19.49;47.66;97106.78;10419946;28;20045;-48
2023/06/01 01:22:14;;;;;;;0.98;0.80;;;;;;;19.48;47.60;97107.91;10459353;28;20072;-46
2023/06/01 01:27:37;;;;;;;1.05;0.98;;;;;;;19.47;47.63;97106.31;10474736;28;20042;-44
2023/06/01 01:32:57;;;;;;;1.00;0.98;;;;;;;19.47;47.73;97103.59;10465701;28;20042;-48
2023/06/01 01:38:17;;;;;;;1.90;0.98;;;;;;;19.47;47.72;97103.59;10452718;28;20379;-47
2023/06/01 01:43:37;;;;;;;0.95;0.90;;;;;;;19.48;47.64;97099.81;10382823;28;20049;-48
2023/06/01 01:49:17;;;;;;;0.80;0.70;;;;;;;19.47;47.72;97097.41;10407615;28;20580;-47
2023/06/01 01:54:37;;;;;;;1.05;0.65;;;;;;;19.47;47.75;97098.19;10392753;28;20054;-48
2023/06/01 01:59:57;;;;;;;1.20;1.10;;;;;;;19.47;47.83;97086.59;10457692;28;20056;-48
2023/06/01 02:05:17;;;;;;;1.15;1.05;;;;;;;19.46;47.80;97085.00;10483543;28;20057;-47
2023/06/01 02:10:37;;;;;;;0.95;0.80;;;;;;;19.45;47.91;97083.41;10456593;28;20485;-48
2023/06/01 02:15:57;;;;;;;1.52;0.90;;;;;;;19.45;47.91;97084.22;10422610;28;20473;-48
2023/06/01 02:21:16;;;;;;;1.15;1.00;;;;;;;19.45;47.78;97084.22;10406085;28;20416;-44
2023/06/01 02:26:35;;;;;;;1.02;0.75;;;;;;;19.44;47.93;97071.78;10418889;28;20052;-45
2023/06/01 02:31:55;;;;;;;0.95;0.80;;;;;;;19.44;47.87;97081.81;10387561;28;20054;-45
2023/06/01 02:37:16;;;;;;;1.20;0.90;;;;;;;19.44;47.95;97074.50;10482601;28;20112;-46
2023/06/01 02:42:36;;;;;;;1.13;1.02;;;;;;;19.45;47.99;97081.50;10424563;28;20554;-46
2023/06/01 02:47:55;;;;;;;1.02;0.93;;;;;;;19.43;47.86;97070.22;10460066;28;20037;-48
2023/06/01 02:53:15;;;;;;;1.20;1.10;;;;;;;19.43;47.85;97070.22;10461935;28;20626;-48
2023/06/01 02:58:36;;;;;;;0.95;0.82;;;;;;;19.43;47.98;97067.53;10471022;28;20052;-48
2023/06/01 03:04:12;;;;;;;1.35;1.00;;;;;;;19.43;47.96;97070.22;10478682;28;20045;-47
2023/06/01 03:09:32;;;;;;;0.85;0.77;;;;;;;19.42;47.91;97063.22;10475083;28;20045;-47
2023/06/01 03:15:00;;;;;;;0.97;0.90;;;;;;;19.42;47.99;97063.22;10477429;28;20041;-48
2023/06/01 03:20:20;;;;;;;1.08;1.00;;;;;;;19.42;47.98;97062.44;10413527;28;20489;-48
2023/06/01 03:25:39;;;;;;;0.95;0.80;;;;;;;19.42;48.02;97065.91;10405764;28;20034;-48
2023/06/01 03:31:01;;;;;;;1.00;0.90;;;;;;;19.43;48.15;97072.13;10478747;28;20056;-49
2023/06/01 03:36:22;;;;;;;1.55;1.00;;;;;;;19.41;48.00;97064.34;10473830;28;20042;-46
2023/06/01 03:41:43;;;;;;;0.73;0.73;;;;;;;19.41;48.10;97067.03;10418067;28;20053;-45
2023/06/01 03:47:03;;;;;;;1.67;0.80;;;;;;;19.41;48.04;97064.34;10480674;28;20433;-47
2023/06/01 03:52:24;;;;;;;1.42;0.93;;;;;;;19.42;48.03;97063.22;10473269;28;20058;-46
2023/06/01 03:57:44;;;;;;;1.08;1.00;;;;;;;19.43;47.98;97058.63;10474327;28;20494;-47
2023/06/01 04:03:07;;;;;;;0.90;0.90;;;;;;;19.43;48.02;97059.41;10415824;28;20061;-49
2023/06/01 04:08:27;;;;;;;0.80;0.80;;;;;;;19.44;48.00;97052.88;10479044;28;20042;-48
2023/06/01 04:13:47;;;;;;;1.20;1.10;;;;;;;19.44;48.29;97057.50;10470135;28;20041;-47
2023/06/01 04:19:07;;;;;;;0.85;0.85;;;;;;;19.46;48.70;97056.06;10407118;28;20045;-45
2023/06/01 04:24:27;;;;;;;2.47;1.98;;;;;;;19.15;43.66;97059.69;10478119;28;20044;-50
2023/06/01 04:29:48;;;;;;;4.68;1.75;;;;;;;18.81;43.95;97060.38;10418196;28;20805;-49
2023/06/01 04:35:08;;;;;;;2.15;1.60;;;;;;;18.99;45.47;97057.75;10467854;28;20517;-48
2023/06/01 04:40:27;;;;;;;3.53;1.50;;;;;;;19.13;45.37;97061.09;10478688;28;20509;-47
2023/06/01 04:45:47;;;;;;;5.47;1.73;;;;;;;19.21;45.77;97051.44;10417760;28;20052;-46
2023/06/01 04:51:08;;;;;;;7.30;1.75;;;;;;;19.25;45.45;97058.59;10472769;28;20054;-46
2023/06/01 04:56:28;;;;;;;7.32;1.65;;;;;;;19.27;45.62;97067.19;10466300;28;20438;-46
2023/06/01 05:01:48;;;;;;;6.47;2.00;;;;;;;19.15;44.59;97057.00;10416840;28;20045;-47
2023/06/01 05:07:07;;;;;;;9.43;2.85;;;;;;;19.21;45.13;97052.25;10474945;28;20493;-47
2023/06/01 05:12:27;;;;;;;9.95;2.60;;;;;;;19.24;45.06;97058.91;10410143;28;20508;-49
2023/06/01 05:17:47;;;;;;;6.63;2.40;;;;;;;19.25;44.84;97046.97;10416607;28;20083;-47
2023/06/01 05:23:09;;;;;;;6.55;2.15;;;;;;;19.26;44.78;97048.59;10450873;28;20053;-48
2023/06/01 05:28:30;;;;;;;5.28;2.00;;;;;;;19.28;44.69;97035.56;10477582;28;20041;-48
2023/06/01 05:33:51;;;;;;;6.65;2.00;;;;;;;19.29;44.92;97027.16;10421068;28;20550;-49
2023/06/01 05:39:11;;;;;;;6.07;2.10;;;;;;;19.30;45.01;97034.13;10485291;28;20567;-48
2023/06/01 05:44:31;;;;;;;3.95;2.00;;;;;;;19.32;45.02;97025.72;10455427;28;20064;-47
2023/06/01 05:49:51;;;;;;;6.70;1.80;;;;;;;19.32;45.41;97023.00;10462302;28;20052;-48
2023/06/01 05:55:10;;;;;;;5.22;2.55;;;;;;;19.33;45.47;97019.22;10409816;28;20049;-50
2023/06/01 06:00:30;;;;;;;4.18;1.75;;;;;;;19.34;45.71;97028.88;10425993;28;20041;-46
2023/06/01 06:05:50;;;;;;;3.80;1.90;;;;;;;19.35;45.88;97030.50;10470279;28;20059;-50
2023/06/01 06:11:10;;;;;;;3.42;1.80;;;;;;;19.35;46.09;97030.50;10413385;28;20042;-49
2023/06/01 06:16:29;;;;;;;4.65;1.75;;;;;;;19.35;46.27;97030.50;10406231;28;20109;-49
2023/06/01 06:21:49;;;;;;;3.50;2.05;;;;;;;19.35;46.44;97027.78;10422326;28;20052;-47
2023/06/01 06:27:09;;;;;;;2.65;1.80;;;;;;;19.36;46.66;97032.06;10423049;28;20053;-47
2023/06/01 06:32:29;;;;;;;3.47;1.70;;;;;;;19.36;46.81;97032.06;10397649;28;20045;-47
2023/06/01 06:37:48;;;;;;;4.32;1.90;;;;;;;19.36;47.03;97027.44;10385605;28;20042;-49
2023/06/01 06:43:07;;;;;;;3.00;1.60;;;;;;;19.35;47.08;97025.88;10360445;28;20057;-48
2023/06/01 06:48:27;;;;;;;3.45;1.90;;;;;;;19.37;47.23;97022.88;10386104;28;20440;-49
2023/06/01 06:53:47;;;;;;;4.35;1.95;;;;;;;19.38;47.35;97023.66;10375622;28;20057;-48
2023/06/01 06:59:06;;;;;;;3.28;1.73;;;;;;;19.38;47.31;97027.13;10385946;28;20523;-46
2023/06/01 07:04:27;;;;;;;3.08;2.05;;;;;;;19.39;47.34;97033.34;10383122;28;20058;-47
2023/06/01 07:09:47;;;;;;;2.45;1.73;;;;;;;19.39;47.35;97031.44;10370789;28;20054;-46
2023/06/01 07:15:08;;;;;;;3.95;1.80;;;;;;;19.39;47.38;97036.84;10385900;28;20041;-45
2023/06/01 07:20:27;;;;;;;2.42;1.65;;;;;;;19.41;47.40;97033.84;10445429;28;20046;-47
2023/06/01 07:25:46;;;;;;;2.90;1.80;;;;;;;19.40;47.56;97027.63;10396151;28;20038;-45
2023/06/01 07:31:06;;;;;;;2.88;1.90;;;;;;;19.41;47.67;97026.50;10376788;28;20048;-47
2023/06/01 07:36:26;;;;;;;2.47;1.92;;;;;;;19.40;47.48;97027.63;10382312;28;20046;-46
2023/06/01 07:41:45;;;;;;;2.35;1.80;;;;;;;19.41;47.58;97018.41;10371062;28;20046;-46
2023/06/01 07:47:05;;;;;;;1.98;1.77;;;;;;;19.40;47.70;97022.22;10384707;28;20444;-48
2023/06/01 07:52:25;;;;;;;2.15;1.73;;;;;;;19.42;47.84;97022.69;10368159;28;20089;-47
2023/06/01 07:57:44;;;;;;;2.63;1.80;;;;;;;19.41;47.91;97018.41;10389233;28;20490;-46
2023/06/01 08:03:05;;;;;;;3.08;1.77;;;;;;;19.42;47.92;97011.88;10381810;28;20058;-46
2023/06/01 08:08:25;;;;;;;1.98;1.77;;;;;;;19.42;47.75;97009.19;10375764;28;20483;-47
2023/06/01 08:13:47;;;;;;;2.90;1.60;;;;;;;19.42;47.85;97017.28;10370770;28;20045;-45
2023/06/01 08:19:07;;;;;;;3.10;1.80;;;;;;;19.42;47.98;97014.59;10367919;28;20058;-46
2023/06/01 08:24:27;;;;;;;2.65;1.63;;;;;;;19.44;48.05;97012.34;10383439;28;20046;-46
2023/06/01 08:29:48;;;;;;;2.13;1.40;;;;;;;19.43;48.27;97010.00;10380649;28;20049;-46
2023/06/01 08:35:08;;;;;;;1.95;1.73;;;;;;;19.42;48.21;97011.88;10385786;28;20102;-45
2023/06/01 08:40:27;;;;;;;3.30;1.45;;;;;;;19.43;48.24;97012.69;10383988;28;20041;-46
2023/06/01 08:45:48;;;;;;;2.42;1.60;;;;;;;19.43;48.23;97005.38;10392710;28;20045;-46
2023/06/01 08:51:07;;;;;;;2.35;1.55;;;;;;;19.44;48.25;97003.47;10376478;28;20053;-46
2023/06/01 08:56:28;;;;;;;2.42;1.58;;;;;;;19.44;48.35;96993.44;10382443;28;20049;-46
2023/06/01 09:01:47;;;;;;;2.22;1.52;;;;;;;19.46;48.50;97003.94;10380005;28;20050;-47
2023/06/01 09:07:07;;;;;;;2.38;1.67;;;;;;;19.45;48.57;96988.84;10372521;28;20045;-46
2023/06/01 09:12:29;;;;;;;2.10;1.50;;;;;;;19.45;48.52;96980.75;10395774;28;20037;-46
2023/06/01 09:17:50;;;;;;;1.95;1.30;;;;;;;19.46;48.76;96985.81;10399710;28;20042;-47
2023/06/01 09:23:10;;;;;;;1.85;1.50;;;;;;;19.46;48.92;96985.81;10396470;28;20049;-46
2023/06/01 09:28:30;;;;;;;5.57;3.00;;;;;;;19.46;49.21;96985.03;10443756;28;20087;-46
2023/06/01 09:34:00;;;;;;;36.60;26.00;;;;;;;19.46;49.44;96966.91;10386197;28;20046;-46
2023/06/01 09:39:22;;;;;;;45.30;35.50;;;;;;;19.47;49.87;96973.13;10362242;28;20191;-46
2023/06/01 09:44:42;;;;;;;64.15;49.65;;;;;;;19.46;50.18;96969.59;10385844;28;20050;-46
2023/06/01 09:50:03;;;;;;;99.28;73.03;;;;;;;19.47;50.18;96967.72;10376742;28;20049;-46
2023/06/01 09:55:22;;;;;;;103.35;81.13;;;;;;;19.47;50.46;96965.81;10382601;28;20052;-46
2023/06/01 10:00:42;;;;;;;104.90;80.05;;;;;;;19.47;50.78;96960.41;10386713;28;20478;-46
2023/06/01 10:06:02;;;;;;;98.65;77.15;;;;;;;19.48;50.98;96948.50;10385333;28;20050;-45
2023/06/01 10:11:22;;;;;;;91.93;71.82;;;;;;;19.49;51.27;96949.28;10449981;28;20049;-45
2023/06/01 10:16:43;;;;;;;76.72;59.40;;;;;;;19.49;51.44;96950.06;10398245;28;20053;-46
2023/06/01 10:22:03;;;;;;;77.75;60.67;;;;;;;19.48;51.41;96940.38;10386276;28;20050;-46
2023/06/01 10:27:30;;;;;;;73.93;54.95;;;;;;;19.48;51.33;96937.69;10378816;28;20049;-47
2023/06/01 10:32:50;;;;;;;73.47;51.88;;;;;;;19.49;51.55;96939.25;10441558;28;20091;-46
2023/06/01 10:38:09;;;;;;;67.03;49.00;;;;;;;19.47;51.39;96941.47;10406062;28;20481;-48
2023/06/01 10:43:35;;;;;;;65.68;44.25;;;;;;;19.49;51.14;96933.84;10381639;28;20111;-50
2023/06/01 10:48:56;;;;;;;64.40;44.75;;;;;;;19.50;51.28;96931.94;10383546;28;20513;-46
2023/06/01 10:54:30;;;;;;;60.88;46.58;;;;;;;19.51;51.53;96931.63;10386978;28;20053;-49
2023/06/01 11:00:18;;;;;;;63.03;46.88;;;;;;;19.50;51.49;96927.34;10396860;28;20486;-50
2023/06/01 11:05:39;;;;;;;;;;;;;;;19.50;51.73;96932.75;10398420;28;20045;-46
2023/06/01 11:10:59;;;;;;;62.83;45.28;;;;;;;19.50;51.64;96921.94;10383351;28;20365;-48
2023/06/01 11:16:26;;;;;;;61.67;46.00;;;;;;;19.51;51.66;96920.81;10388304;28;20041;-47
2023/06/01 11:21:46;;;;;;;57.10;44.55;;;;;;;19.51;51.64;96918.09;10387617;28;20574;-45
2023/06/01 11:27:08;;;;;;;57.78;44.33;;;;;;;19.51;51.64;96915.41;10385589;28;20042;-49
2023/06/01 11:32:28;;;;;;;58.67;43.00;;;;;;;19.52;51.72;96894.56;10445040;28;20045;-48
2023/06/01 11:37:53;;;;;;;57.75;44.53;;;;;;;19.51;51.80;96891.09;10385172;28;20041;-47
2023/06/01 11:43:26;;;;;;;57.13;42.47;;;;;;;19.51;51.74;96888.38;10392680;28;20053;-47
2023/06/01 11:49:06;;;;;;;55.10;41.58;;;;;;;19.52;51.82;96881.06;10414811;28;20401;-50
2023/06/01 11:54:28;;;;;;;57.10;42.65;;;;;;;19.51;51.86;96877.56;10404990;28;20062;-47
2023/06/01 11:59:49;;;;;;;54.40;41.25;;;;;;;19.52;51.81;96871.06;10368236;28;20054;-47
2023/06/01 12:05:08;;;;;;;53.97;41.17;;;;;;;19.52;51.92;96871.06;10392960;28;20049;-47
2023/06/01 12:10:28;;;;;;;55.22;39.72;;;;;;;19.52;51.90;96862.97;10397257;28;20053;-46
2023/06/01 12:15:51;;;;;;;53.80;39.03;;;;;;;19.53;51.83;96864.53;10400236;28;20409;-48
2023/06/01 12:21:12;;;;;;;59.22;40.28;;;;;;;19.51;51.81;96855.97;10383311;28;20041;-49
2023/06/01 12:26:35;;;;;;;53.10;39.30;;;;;;;19.53;51.93;96858.34;10367924;28;20084;-47
2023/06/01 12:31:55;;;;;;;54.03;39.58;;;;;;;19.53;51.93;96845.63;10383194;28;20489;-48
2023/06/01 12:37:19;;;;;;;50.05;37.38;;;;;;;19.52;51.81;96841.34;10385851;28;20045;-50
2023/06/01 12:42:40;;;;;;;48.90;37.85;;;;;;;19.52;51.88;96833.25;10386667;28;20049;-49
2023/06/01 12:48:00;;;;;;;51.25;37.45;;;;;;;19.53;51.94;96831.31;10393084;28;20042;-45
2023/06/01 12:53:19;;;;;;;49.83;36.95;;;;;;;19.53;52.00;96829.41;10369975;28;20061;-48
2023/06/01 12:58:40;;;;;;;52.03;37.03;;;;;;;19.53;52.06;96824.00;10366398;28;20574;-45
2023/06/01 13:04:00;;;;;;;48.33;36.03;;;;;;;19.53;52.21;96815.91;10360729;28;20097;-48
2023/06/01 13:09:20;;;;;;;48.65;35.63;;;;;;;19.54;52.15;96816.69;10379965;28;20406;-50
2023/06/01 13:14:39;;;;;;;48.50;35.28;;;;;;;19.56;52.46;96809.06;10379564;28;20042;-46
2023/06/01 13:19:59;;;;;;;48.28;35.70;;;;;;;19.56;52.53;96804.47;10381030;28;20045;-47
2023/06/01 13:25:19;;;;;;;47.60;35.80;;;;;;;19.57;52.71;96805.25;10401255;28;20179;-48
2023/06/01 13:30:39;;;;;;;44.85;34.13;;;;;;;19.59;52.70;96794.91;10379003;28;20042;-46
2023/06/01 13:35:58;;;;;;;50.90;36.13;;;;;;;19.59;52.92;96791.41;10378541;28;20049;-49
2023/06/01 13:41:18;;;;;;;44.10;33.90;;;;;;;19.60;53.13;96787.59;10382414;28;20064;-47
2023/06/01 13:46:38;;;;;;;42.92;33.00;;;;;;;19.60;53.16;96782.19;10404851;28;20049;-46
2023/06/01 13:51:58;;;;;;;44.55;33.35;;;;;;;19.61;53.30;96779.16;10383707;28;20057;-48
2023/06/01 13:57:18;;;;;;;46.55;33.92;;;;;;;19.61;53.50;96772.97;10370000;28;20060;-48
2023/06/01 14:02:38;;;;;;;43.83;32.95;;;;;;;19.62;53.65;96766.44;10385234;28;20045;-49
2023/06/01 14:07:57;;;;;;;36.35;27.08;;;;;;;19.63;53.71;96759.91;10372343;28;20054;-48
2023/06/01 14:13:17;;;;;;;40.75;30.13;;;;;;;19.63;53.75;96752.59;10384739;28;20046;-46
2023/06/01 14:18:37;;;;;;;35.78;28.88;;;;;;;19.64;53.66;96750.69;10387667;28;20053;-49
2023/06/01 14:23:57;;;;;;;36.15;27.88;;;;;;;19.65;53.77;96741.47;10386319;28;20119;-48
2023/06/01 14:29:16;;;;;;;37.60;30.15;;;;;;;19.66;53.76;96740.34;10371719;28;20058;-45
2023/06/01 14:34:36;;;;;;;37.13;29.13;;;;;;;19.67;53.80;96731.13;10404028;28;20041;-49
2023/06/01 14:39:55;;;;;;;34.50;28.33;;;;;;;19.67;53.70;96728.41;10385143;28;20094;-49
2023/06/01 14:45:15;;;;;;;38.60;29.55;;;;;;;19.67;53.77;96723.81;10391648;28;20051;-45
2023/06/01 14:50:35;;;;;;;28.15;17.13;;;;;;;19.76;51.03;96715.69;10389159;28;20050;-49
2023/06/01 14:55:54;;;;;;;21.35;15.35;;;;;;;19.76;50.27;96710.28;10371225;28;20050;-48
2023/06/01 15:01:14;;;;;;;18.45;12.80;;;;;;;19.79;49.30;96701.50;10389227;28;20410;-46
2023/06/01 15:06:36;;;;;;;9.52;4.90;;;;;;;19.85;45.91;96702.88;10382632;28;20513;-48
2023/06/01 15:11:56;;;;;;;8.43;4.78;;;;;;;19.85;46.46;96696.69;10383307;28;20045;-49
2023/06/01 15:17:15;;;;;;;7.22;4.38;;;;;;;19.83;46.96;96691.63;10385108;28;20042;-49
2023/06/01 15:22:35;;;;;;;11.75;5.45;;;;;;;19.79;47.17;96682.59;10385002;28;20049;-45
2023/06/01 15:27:54;;;;;;;13.60;5.10;;;;;;;19.77;47.44;96684.81;10385679;28;20406;-53
2023/06/01 15:33:14;;;;;;;12.18;5.13;;;;;;;19.75;47.88;96676.25;10443849;28;20041;-47
2023/06/01 15:38:35;;;;;;;8.63;4.25;;;;;;;19.73;48.17;96671.16;10386341;28;20072;-46
2023/06/01 15:43:55;;;;;;;5.20;3.35;;;;;;;19.75;47.73;96668.94;10383279;28;20502;-45
2023/06/01 15:49:15;;;;;;;8.18;3.67;;;;;;;19.81;47.32;96663.34;10384423;28;20045;-48
2023/06/01 15:54:35;;;;;;;10.75;4.97;;;;;;;19.85;47.50;96658.84;10368831;28;20498;-46
2023/06/01 15:59:54;;;;;;;19.00;6.10;;;;;;;19.85;47.74;96648.03;10371800;28;20037;-44
2023/06/01 16:05:14;;;;;;;8.80;4.22;;;;;;;19.86;47.61;96645.00;10382426;28;20073;-50
2023/06/01 16:10:33;;;;;;;8.93;4.15;;;;;;;19.89;47.86;96638.16;10381459;28;20049;-48
2023/06/01 16:15:53;;;;;;;11.18;4.20;;;;;;;19.93;47.62;96637.19;10381485;28;20065;-49
2023/06/01 16:21:14;;;;;;;10.27;4.60;;;;;;;19.90;48.19;96634.34;10380411;28;20049;-49
2023/06/01 16:26:33;;;;;;;15.18;3.92;;;;;;;19.86;48.15;96625.31;10383548;28;20046;-45
2023/06/01 16:31:53;;;;;;;7.70;2.97;;;;;;;19.90;46.52;96618.91;10376178;28;20049;-44
2023/06/01 16:37:13;;;;;;;6.40;2.88;;;;;;;19.91;46.90;96620.47;10376282;28;20046;-46
2023/06/01 16:42:33;;;;;;;8.85;2.70;;;;;;;19.90;47.71;96629.72;10380667;28;20045;-44
2023/06/01 16:47:52;;;;;;;6.72;2.40;;;;;;;19.88;47.59;96621.13;10388573;28;20050;-48
2023/06/01 16:53:13;;;;;;;4.68;2.42;;;;;;;19.92;46.17;96622.06;10354301;28;20114;-46
2023/06/01 16:58:33;;;;;;;4.63;2.30;;;;;;;19.92;46.93;96613.94;10377363;28;20041;-45
2023/06/01 17:03:52;;;;;;;5.85;2.40;;;;;;;19.90;48.02;96608.09;10381305;28;20054;-51
2023/06/01 17:09:13;;;;;;;8.75;2.70;;;;;;;19.88;48.09;96596.81;10379795;28;20110;-52
2023/06/01 17:14:33;;;;;;;7.60;2.50;;;;;;;19.87;47.76;96597.13;10378964;28;20099;-51
2023/06/01 17:19:54;;;;;;;8.13;2.20;;;;;;;19.86;48.54;96593.66;10390030;28;20045;-46
2023/06/01 17:25:14;;;;;;;4.25;2.05;;;;;;;19.84;48.47;96597.81;10402523;28;20095;-47
2023/06/01 17:30:33;;;;;;;5.07;2.20;;;;;;;19.81;47.63;96601.94;10372224;28;20057;-45
2023/06/01 17:35:53;;;;;;;7.05;2.20;;;;;;;19.78;48.26;96594.50;10383780;28;20537;-46
2023/06/01 17:41:13;;;;;;;3.50;1.90;;;;;;;19.74;48.11;96594.38;10374012;28;20627;-45
2023/06/01 17:46:32;;;;;;;7.82;2.13;;;;;;;19.73;48.28;96594.72;10381847;28;20046;-46
2023/06/01 17:51:52;;;;;;;6.40;1.90;;;;;;;19.72;47.77;96587.72;10382662;28;20058;-46
2023/06/01 17:57:11;;;;;;;10.07;2.20;;;;;;;19.67;48.05;96593.28;10373508;28;20034;-46
2023/06/01 18:02:30;;;;;;;8.18;2.13;;;;;;;19.69;47.46;96586.44;10385381;28;20494;-45
2023/06/01 18:07:49;;;;;;;5.25;2.15;;;;;;;19.72;47.20;96593.13;10384009;28;20065;-45
2023/06/01 18:13:09;;;;;;;6.10;2.13;;;;;;;19.72;47.33;96579.63;10382275;28;20041;-47
2023/06/01 18:18:29;;;;;;;5.03;2.42;;;;;;;19.72;47.60;96588.50;10445365;28;20107;-45
2023/06/01 18:23:50;;;;;;;4.43;2.00;;;;;;;19.72;47.58;96585.03;10442750;28;20111;-48
2023/06/01 18:29:09;;;;;;;9.93;2.53;;;;;;;19.70;47.35;96587.25;10384915;28;20039;-46
2023/06/01 18:34:30;;;;;;;3.17;2.10;;;;;;;19.67;47.44;96594.06;10386722;28;20041;-45
2023/06/01 18:39:49;;;;;;;3.92;2.30;;;;;;;19.66;47.36;96602.50;10382514;28;20087;-45
2023/06/01 18:45:10;;;;;;;5.45;2.10;;;;;;;19.61;47.05;96610.81;10396426;28;20497;-46
2023/06/01 18:50:31;;;;;;;5.38;2.08;;;;;;;19.55;46.76;96621.81;10381901;28;20042;-44
2023/06/01 18:55:50;;;;;;;5.22;2.17;;;;;;;19.52;45.91;96627.91;10383202;28;20045;-45
2023/06/01 19:01:10;;;;;;;5.18;1.98;;;;;;;19.54;45.39;96628.34;10363007;28;20046;-49
2023/06/01 19:06:33;;;;;;;2.92;2.20;;;;;;;19.54;45.16;96633.75;10385548;28;20143;-46
2023/06/01 19:11:52;;;;;;;6.53;3.10;;;;;;;19.55;44.93;96646.13;10381553;28;20410;-44
2023/06/01 19:17:15;;;;;;;5.72;2.15;;;;;;;19.56;44.68;96652.31;10375949;28;20050;-44
2023/06/01 19:22:34;;;;;;;6.55;2.65;;;;;;;19.56;45.23;96657.72;10385985;28;20041;-45
2023/06/01 19:27:54;;;;;;;4.82;2.38;;;;;;;19.56;45.83;96665.84;10385933;28;20044;-45
2023/06/01 19:33:17;;;;;;;4.43;2.33;;;;;;;19.56;46.81;96671.25;10382298;28;20050;-49
2023/06/01 19:38:37;;;;;;;4.90;2.65;;;;;;;19.56;47.30;96674.75;10382331;28;20111;-45
2023/06/01 19:43:56;;;;;;;3.97;2.50;;;;;;;19.58;47.58;96679.03;10392822;28;20049;-47
2023/06/01 19:49:17;;;;;;;5.15;2.60;;;;;;;19.59;47.77;96677.91;10381930;28;20070;-49
2023/06/01 19:54:37;;;;;;;5.30;2.67;;;;;;;19.60;47.95;96684.91;10391405;28;20054;-48
2023/06/01 19:59:57;;;;;;;5.70;2.83;;;;;;;19.61;47.98;96683.78;10392340;28;20044;-49
2023/06/01 20:05:18;;;;;;;7.35;3.15;;;;;;;19.61;47.94;96686.50;10387836;28;20050;-46
2023/06/01 20:10:40;;;;;;;6.35;2.80;;;;;;;19.60;48.01;96690.31;10447914;28;20070;-44
2023/06/01 20:16:00;;;;;;;10.98;3.53;;;;;;;19.60;48.03;96684.91;10372268;28;20501;-46
2023/06/01 20:21:21;;;;;;;9.88;3.63;;;;;;;19.60;48.00;96683.00;10388661;28;20038;-48
2023/06/01 20:26:41;;;;;;;7.45;3.33;;;;;;;19.62;48.01;96698.88;10400086;28;20041;-46
2023/06/01 20:32:02;;;;;;;6.93;3.70;;;;;;;19.61;47.82;96698.09;10381399;28;20486;-45
2023/06/01 20:37:21;;;;;;;6.50;3.90;;;;;;;19.60;48.09;96698.41;10388742;28;20038;-45
2023/06/01 20:42:41;;;;;;;9.40;3.78;;;;;;;19.60;48.11;96701.91;10394160;28;20052;-49
2023/06/01 20:48:03;;;;;;;7.88;3.90;;;;;;;19.60;48.09;96695.69;10370307;28;20038;-44
2023/06/01 20:53:27;;;;;;;5.07;3.67;;;;;;;19.60;48.08;96695.69;10370359;28;20064;-46
2023/06/01 20:58:47;;;;;;;10.15;4.00;;;;;;;19.60;48.07;96701.91;10390674;28;20052;-45
2023/06/01 21:04:09;;;;;;;6.90;3.50;;;;;;;19.60;48.15;96696.53;10359333;28;20162;-48
2023/06/01 21:09:29;;;;;;;5.05;3.53;;;;;;;19.60;48.12;96699.22;10426068;28;20057;-47
2023/06/01 21:14:50;;;;;;;4.95;3.33;;;;;;;19.60;47.96;96701.09;10380227;28;20070;-45
2023/06/01 21:20:10;;;;;;;5.00;3.60;;;;;;;19.60;47.65;96701.91;10398297;28;20045;-45
2023/06/01 21:25:31;;;;;;;5.65;3.85;;;;;;;19.58;47.35;96704.13;10379568;28;20518;-44
2023/06/01 21:30:51;;;;;;;6.22;3.58;;;;;;;19.59;47.30;96713.06;10381940;28;20057;-48
2023/06/01 21:36:11;;;;;;;8.57;4.30;;;;;;;19.58;47.18;96711.44;10379091;28;20045;-45
2023/06/01 21:41:30;;;;;;;5.00;3.60;;;;;;;19.57;47.11;96707.97;10381494;28;20068;-46
2023/06/01 21:46:50;;;;;;;4.50;3.67;;;;;;;19.57;46.74;96716.06;10368545;28;20054;-47
2023/06/01 21:52:09;;;;;;;4.30;3.58;;;;;;;19.56;46.64;96709.06;10378134;28;20132;-47
2023/06/01 21:57:29;;;;;;;4.85;3.60;;;;;;;19.55;46.48;96708.28;10378794;28;20397;-47
2023/06/01 22:02:49;;;;;;;4.95;3.97;;;;;;;19.55;46.30;96705.59;10378478;28;20046;-46
2023/06/01 22:08:09;;;;;;;5.72;3.35;;;;;;;19.54;46.12;96704.00;10381199;28;20038;-47
2023/06/01 22:13:29;;;;;;;5.60;3.65;;;;;;;19.53;45.71;96707.03;10378078;28;20541;-47
2023/06/01 22:18:49;;;;;;;6.75;3.42;;;;;;;19.52;45.48;96708.97;10373859;28;20065;-47
2023/06/01 22:24:08;;;;;;;5.93;3.47;;;;;;;19.51;45.31;96706.56;10377293;28;20094;-45
2023/06/01 22:29:28;;;;;;;4.72;3.72;;;;;;;19.49;45.13;96706.88;10387261;28;20041;-48
2023/06/01 22:34:48;;;;;;;4.47;3.30;;;;;;;19.50;45.18;96710.38;10384379;28;20485;-49
2023/06/01 22:40:08;;;;;;;3.88;3.40;;;;;;;19.50;45.09;96715.78;10377476;28;20049;-46
2023/06/01 22:45:28;;;;;;;8.40;3.50;;;;;;;19.49;44.87;96719.63;10386863;28;20046;-49
2023/06/01 22:50:47;;;;;;;4.38;3.60;;;;;;;19.47;44.80;96717.22;10384583;28;20498;-49
2023/06/01 22:56:07;;;;;;;4.68;3.50;;;;;;;19.46;44.89;96721.03;10370608;28;20042;-48
2023/06/01 23:01:27;;;;;;;4.13;3.72;;;;;;;19.46;44.80;96723.75;10383624;28;20789;-47
2023/06/01 23:06:53;;;;;;;5.18;3.60;;;;;;;19.46;44.48;96721.03;10380690;28;20098;-50
2023/06/01 23:12:13;;;;;;;5.68;3.80;;;;;;;19.45;44.43;96719.47;10394087;28;20045;-49
2023/06/01 23:17:33;;;;;;;5.00;3.38;;;;;;;19.45;44.47;96721.38;10389716;28;20041;-46
2023/06/01 23:22:53;;;;;;;5.05;3.20;;;;;;;19.45;44.69;96724.09;10387124;28;20065;-49
2023/06/01 23:28:13;;;;;;;5.97;3.42;;;;;;;19.44;44.38;96730.59;10382521;28;20559;-48
2023/06/01 23:33:33;;;;;;;5.30;3.80;;;;;;;19.42;44.09;96725.50;10393723;28;20041;-46
2023/06/01 23:39:01;;;;;;;3.65;3.30;;;;;;;19.42;43.96;96730.91;10386603;28;20042;-48
2023/06/01 23:44:20;;;;;;;7.10;3.60;;;;;;;19.41;43.97;96737.44;10385409;28;20099;-49
2023/06/01 23:49:40;;;;;;;4.65;3.40;;;;;;;19.40;43.85;96732.38;10408880;28;20048;-48
2023/06/01 23:55:00;;;;;;;5.53;3.78;;;;;;;19.40;43.94;96729.66;10414753;28;20038;-49
